sensor_id;sensor_type;location;lat;lon;timestamp;P1;durP1;ratioP1;P2;durP2;ratioP2
26253;SDS011;53339;51.378;0.094;2023-02-28T00:01:33;2.85;;;1.98;;
26253;SDS011;53339;51.378;0.094;2023-02-28T00:04:28;5.90;;;2.22;;
26253;SDS011;53339;51.378;0.094;2023-02-28T00:07:15;8.88;;;4.85;;
26253;SDS011;53339;51.378;0.094;2023-02-28T00:09:43;6.72;;;6.00;;
26253;SDS011;53339;51.378;0.094;2023-02-28T00:12:11;3.63;;;2.67;;
26253;SDS011;53339;51.378;0.094;2023-02-28T00:14:50;5.07;;;2.80;;
26253;SDS011;53339;51.378;0.094;2023-02-28T00:17:47;6.40;;;2.95;;
26253;SDS011;53339;51.378;0.094;2023-02-28T00:20:36;4.93;;;4.53;;
26253;SDS011;53339;51.378;0.094;2023-02-28T00:23:24;2.60;;;1.95;;
26253;SDS011;53339;51.378;0.094;2023-02-28T00:26:02;7.22;;;5.60;;
26253;SDS011;53339;51.378;0.094;2023-02-28T00:28:33;5.45;;;2.20;;
26253;SDS011;53339;51.378;0.094;2023-02-28T00:31:53;2.83;;;2.58;;
26253;SDS011;53339;51.378;0.094;2023-02-28T00:34:41;6.07;;;5.72;;
26253;SDS011;53339;51.378;0.094;2023-02-28T00:38:03;4.53;;;4.13;;
26253;SDS011;53339;51.378;0.094;2023-02-28T00:41:19;3.03;;;2.05;;
26253;SDS011;53339;51.378;0.094;2023-02-28T00:44:30;8.07;;;7.30;;
26253;SDS011;53339;51.378;0.094;2023-02-28T00:47:22;4.85;;;2.45;;
26253;SDS011;53339;51.378;0.094;2023-02-28T00:49:53;5.55;;;5.15;;
26253;SDS011;53339;51.378;0.094;2023-02-28T00:52:39;3.30;;;1.83;;
26253;SDS011;53339;51.378;0.094;2023-02-28T00:56:14;5.47;;;2.60;;
26253;SDS011;53339;51.378;0.094;2023-02-28T00:59:23;5.90;;;5.47;;
26253;SDS011;53339;51.378;0.094;2023-02-28T01:02:03;3.63;;;2.10;;
26253;SDS011;53339;51.378;0.094;2023-02-28T01:05:00;7.00;;;6.40;;
26253;SDS011;53339;51.378;0.094;2023-02-28T01:07:51;4.63;;;2.35;;
26253;SDS011;53339;51.378;0.094;2023-02-28T01:10:38;6.88;;;6.35;;
26253;SDS011;53339;51.378;0.094;2023-02-28T01:13:17;5.28;;;4.97;;
26253;SDS011;53339;51.378;0.094;2023-02-28T01:15:57;4.65;;;3.35;;
26253;SDS011;53339;51.378;0.094;2023-02-28T01:18:25;4.32;;;2.85;;
26253;SDS011;53339;51.378;0.094;2023-02-28T01:21:23;5.20;;;2.38;;
26253;SDS011;53339;51.378;0.094;2023-02-28T01:24:08;4.00;;;2.22;;
26253;SDS011;53339;51.378;0.094;2023-02-28T01:26:40;6.93;;;2.53;;
26253;SDS011;53339;51.378;0.094;2023-02-28T01:29:17;2.80;;;2.28;;
26253;SDS011;53339;51.378;0.094;2023-02-28T01:31:45;2.45;;;2.15;;
26253;SDS011;53339;51.378;0.094;2023-02-28T01:34:13;2.45;;;2.25;;
26253;SDS011;53339;51.378;0.094;2023-02-28T01:37:14;8.00;;;6.10;;
26253;SDS011;53339;51.378;0.094;2023-02-28T01:40:30;7.43;;;6.93;;
26253;SDS011;53339;51.378;0.094;2023-02-28T01:45:59;10.23;;;6.75;;
26253;SDS011;53339;51.378;0.094;2023-02-28T01:51:37;5.20;;;4.47;;
26253;SDS011;53339;51.378;0.094;2023-02-28T01:54:27;3.65;;;2.75;;
26253;SDS011;53339;51.378;0.094;2023-02-28T01:57:14;4.70;;;3.25;;
26253;SDS011;53339;51.378;0.094;2023-02-28T02:00:25;5.10;;;2.05;;
26253;SDS011;53339;51.378;0.094;2023-02-28T02:03:22;3.13;;;2.83;;
26253;SDS011;53339;51.378;0.094;2023-02-28T02:05:51;5.43;;;4.93;;
26253;SDS011;53339;51.378;0.094;2023-02-28T02:08:20;6.97;;;2.78;;
26253;SDS011;53339;51.378;0.094;2023-02-28T02:11:19;3.83;;;2.63;;
26253;SDS011;53339;51.378;0.094;2023-02-28T02:23:27;7.68;;;6.97;;
26253;SDS011;53339;51.378;0.094;2023-02-28T02:35:43;7.80;;;4.07;;
26253;SDS011;53339;51.378;0.094;2023-02-28T02:38:54;5.28;;;4.88;;
26253;SDS011;53339;51.378;0.094;2023-02-28T02:41:52;6.95;;;6.45;;
26253;SDS011;53339;51.378;0.094;2023-02-28T02:47:52;10.10;;;7.22;;
26253;SDS011;53339;51.378;0.094;2023-02-28T02:50:36;8.57;;;7.80;;
26253;SDS011;53339;51.378;0.094;2023-02-28T02:53:35;6.65;;;2.83;;
26253;SDS011;53339;51.378;0.094;2023-02-28T02:57:03;12.18;;;4.43;;
26253;SDS011;53339;51.378;0.094;2023-02-28T03:00:18;6.30;;;5.80;;
26253;SDS011;53339;51.378;0.094;2023-02-28T03:03:06;3.30;;;2.97;;
26253;SDS011;53339;51.378;0.094;2023-02-28T03:05:45;8.95;;;8.18;;
26253;SDS011;53339;51.378;0.094;2023-02-28T03:11:27;8.65;;;7.95;;
26253;SDS011;53339;51.378;0.094;2023-02-28T03:25:17;7.20;;;3.90;;
26253;SDS011;53339;51.378;0.094;2023-02-28T03:31:18;8.18;;;5.90;;
26253;SDS011;53339;51.378;0.094;2023-02-28T03:34:04;5.18;;;2.75;;
26253;SDS011;53339;51.378;0.094;2023-02-28T03:36:45;12.20;;;7.03;;
26253;SDS011;53339;51.378;0.094;2023-02-28T03:39:19;3.42;;;2.90;;
26253;SDS011;53339;51.378;0.094;2023-02-28T03:42:37;8.95;;;6.57;;
26253;SDS011;53339;51.378;0.094;2023-02-28T03:44:55;6.35;;;5.63;;
26253;SDS011;53339;51.378;0.094;2023-02-28T03:47:45;12.40;;;4.72;;
26253;SDS011;53339;51.378;0.094;2023-02-28T03:50:39;4.95;;;3.17;;
26253;SDS011;53339;51.378;0.094;2023-02-28T03:53:27;5.85;;;4.10;;
26253;SDS011;53339;51.378;0.094;2023-02-28T03:56:19;7.45;;;3.33;;
26253;SDS011;53339;51.378;0.094;2023-02-28T03:59:32;8.68;;;7.07;;
26253;SDS011;53339;51.378;0.094;2023-02-28T04:02:40;4.82;;;3.85;;
26253;SDS011;53339;51.378;0.094;2023-02-28T04:05:32;14.40;;;9.32;;
26253;SDS011;53339;51.378;0.094;2023-02-28T04:11:43;9.32;;;5.95;;
26253;SDS011;53339;51.378;0.094;2023-02-28T04:14:37;6.38;;;5.90;;
26253;SDS011;53339;51.378;0.094;2023-02-28T04:17:20;8.15;;;7.10;;
26253;SDS011;53339;51.378;0.094;2023-02-28T04:19:56;5.10;;;3.38;;
26253;SDS011;53339;51.378;0.094;2023-02-28T04:25:57;8.45;;;4.45;;
26253;SDS011;53339;51.378;0.094;2023-02-28T04:28:29;8.93;;;4.32;;
26253;SDS011;53339;51.378;0.094;2023-02-28T04:30:58;10.00;;;7.25;;
26253;SDS011;53339;51.378;0.094;2023-02-28T04:34:01;6.20;;;4.43;;
26253;SDS011;53339;51.378;0.094;2023-02-28T04:36:43;6.95;;;4.30;;
26253;SDS011;53339;51.378;0.094;2023-02-28T04:39:42;7.63;;;6.90;;
26253;SDS011;53339;51.378;0.094;2023-02-28T04:42:44;5.88;;;3.97;;
26253;SDS011;53339;51.378;0.094;2023-02-28T04:45:13;9.50;;;3.33;;
26253;SDS011;53339;51.378;0.094;2023-02-28T04:50:46;5.10;;;3.30;;
26253;SDS011;53339;51.378;0.094;2023-02-28T04:53:47;6.75;;;3.50;;
26253;SDS011;53339;51.378;0.094;2023-02-28T04:56:16;6.97;;;3.33;;
26253;SDS011;53339;51.378;0.094;2023-02-28T04:58:55;8.00;;;3.45;;
26253;SDS011;53339;51.378;0.094;2023-02-28T05:01:28;7.03;;;3.80;;
26253;SDS011;53339;51.378;0.094;2023-02-28T05:03:58;10.75;;;9.68;;
26253;SDS011;53339;51.378;0.094;2023-02-28T05:06:32;10.63;;;9.43;;
26253;SDS011;53339;51.378;0.094;2023-02-28T05:09:12;11.23;;;5.00;;
26253;SDS011;53339;51.378;0.094;2023-02-28T05:11:53;8.23;;;7.53;;
26253;SDS011;53339;51.378;0.094;2023-02-28T05:15:04;6.63;;;3.45;;
26253;SDS011;53339;51.378;0.094;2023-02-28T05:17:52;8.70;;;3.80;;
26253;SDS011;53339;51.378;0.094;2023-02-28T05:20:34;2.97;;;2.78;;
26253;SDS011;53339;51.378;0.094;2023-02-28T05:23:36;6.68;;;3.53;;
26253;SDS011;53339;51.378;0.094;2023-02-28T05:27:05;8.05;;;5.32;;
26253;SDS011;53339;51.378;0.094;2023-02-28T05:29:10;6.40;;;3.58;;
26253;SDS011;53339;51.378;0.094;2023-02-28T05:32:23;5.32;;;3.05;;
26253;SDS011;53339;51.378;0.094;2023-02-28T05:35:29;6.10;;;3.72;;
26253;SDS011;53339;51.378;0.094;2023-02-28T05:38:07;4.57;;;2.80;;
26253;SDS011;53339;51.378;0.094;2023-02-28T05:40:37;5.63;;;2.55;;
26253;SDS011;53339;51.378;0.094;2023-02-28T05:43:21;8.93;;;7.30;;
26253;SDS011;53339;51.378;0.094;2023-02-28T05:45:49;10.30;;;3.28;;
26253;SDS011;53339;51.378;0.094;2023-02-28T05:48:18;7.85;;;3.78;;
26253;SDS011;53339;51.378;0.094;2023-02-28T05:50:56;5.57;;;2.97;;
26253;SDS011;53339;51.378;0.094;2023-02-28T05:53:25;8.68;;;6.38;;
26253;SDS011;53339;51.378;0.094;2023-02-28T05:57:09;6.95;;;4.07;;
26253;SDS011;53339;51.378;0.094;2023-02-28T05:59:58;5.18;;;3.40;;
26253;SDS011;53339;51.378;0.094;2023-02-28T06:02:27;7.47;;;6.80;;
26253;SDS011;53339;51.378;0.094;2023-02-28T06:05:36;10.13;;;4.35;;
26253;SDS011;53339;51.378;0.094;2023-02-28T06:11:45;3.75;;;2.40;;
26253;SDS011;53339;51.378;0.094;2023-02-28T06:14:38;8.20;;;7.43;;
26253;SDS011;53339;51.378;0.094;2023-02-28T06:17:11;5.97;;;3.58;;
26253;SDS011;53339;51.378;0.094;2023-02-28T06:20:08;6.78;;;3.53;;
26253;SDS011;53339;51.378;0.094;2023-02-28T06:23:27;8.48;;;4.28;;
26253;SDS011;53339;51.378;0.094;2023-02-28T06:26:06;7.32;;;3.28;;
26253;SDS011;53339;51.378;0.094;2023-02-28T06:29:28;6.50;;;4.13;;
26253;SDS011;53339;51.378;0.094;2023-02-28T06:32:24;6.05;;;3.95;;
26253;SDS011;53339;51.378;0.094;2023-02-28T06:34:53;11.60;;;4.05;;
26253;SDS011;53339;51.378;0.094;2023-02-28T06:37:22;9.75;;;7.90;;
26253;SDS011;53339;51.378;0.094;2023-02-28T06:39:54;6.78;;;3.15;;
26253;SDS011;53339;51.378;0.094;2023-02-28T06:43:02;9.70;;;7.43;;
26253;SDS011;53339;51.378;0.094;2023-02-28T06:45:54;8.07;;;3.83;;
26253;SDS011;53339;51.378;0.094;2023-02-28T06:48:29;9.73;;;4.45;;
26253;SDS011;53339;51.378;0.094;2023-02-28T06:51:25;9.57;;;8.05;;
26253;SDS011;53339;51.378;0.094;2023-02-28T06:54:23;10.55;;;8.85;;
26253;SDS011;53339;51.378;0.094;2023-02-28T06:57:29;11.80;;;9.90;;
26253;SDS011;53339;51.378;0.094;2023-02-28T07:00:26;8.55;;;3.90;;
26253;SDS011;53339;51.378;0.094;2023-02-28T07:02:54;8.68;;;7.78;;
26253;SDS011;53339;51.378;0.094;2023-02-28T07:06:25;11.75;;;4.38;;
26253;SDS011;53339;51.378;0.094;2023-02-28T07:09:07;10.02;;;4.45;;
26253;SDS011;53339;51.378;0.094;2023-02-28T07:12:10;9.02;;;3.55;;
26253;SDS011;53339;51.378;0.094;2023-02-28T07:14:36;10.25;;;5.85;;
26253;SDS011;53339;51.378;0.094;2023-02-28T07:17:06;11.85;;;8.07;;
26253;SDS011;53339;51.378;0.094;2023-02-28T07:19:36;10.35;;;5.57;;
26253;SDS011;53339;51.378;0.094;2023-02-28T07:23:11;9.70;;;5.90;;
26253;SDS011;53339;51.378;0.094;2023-02-28T07:25:45;9.68;;;5.97;;
26253;SDS011;53339;51.378;0.094;2023-02-28T07:28:22;10.32;;;4.63;;
26253;SDS011;53339;51.378;0.094;2023-02-28T07:30:51;9.80;;;4.88;;
26253;SDS011;53339;51.378;0.094;2023-02-28T07:33:30;11.30;;;6.25;;
26253;SDS011;53339;51.378;0.094;2023-02-28T07:36:19;10.18;;;5.38;;
26253;SDS011;53339;51.378;0.094;2023-02-28T07:42:07;10.57;;;5.38;;
26253;SDS011;53339;51.378;0.094;2023-02-28T07:47:49;9.48;;;8.55;;
26253;SDS011;53339;51.378;0.094;2023-02-28T07:50:43;10.10;;;4.88;;
26253;SDS011;53339;51.378;0.094;2023-02-28T07:57:23;5.75;;;2.95;;
26253;SDS011;53339;51.378;0.094;2023-02-28T07:59:56;11.88;;;10.90;;
26253;SDS011;53339;51.378;0.094;2023-02-28T08:02:25;12.10;;;8.13;;
26253;SDS011;53339;51.378;0.094;2023-02-28T08:05:28;8.63;;;4.32;;
26253;SDS011;53339;51.378;0.094;2023-02-28T08:08:46;10.00;;;4.03;;
26253;SDS011;53339;51.378;0.094;2023-02-28T08:11:22;7.95;;;6.22;;
26253;SDS011;53339;51.378;0.094;2023-02-28T08:14:03;10.05;;;4.18;;
26253;SDS011;53339;51.378;0.094;2023-02-28T08:16:44;8.45;;;7.55;;
26253;SDS011;53339;51.378;0.094;2023-02-28T08:19:13;4.75;;;3.28;;
26253;SDS011;53339;51.378;0.094;2023-02-28T08:22:14;8.45;;;7.65;;
26253;SDS011;53339;51.378;0.094;2023-02-28T08:24:42;5.65;;;4.15;;
26253;SDS011;53339;51.378;0.094;2023-02-28T08:27:20;5.47;;;3.85;;
26253;SDS011;53339;51.378;0.094;2023-02-28T08:30:35;6.25;;;5.65;;
26253;SDS011;53339;51.378;0.094;2023-02-28T08:33:06;6.60;;;4.28;;
26253;SDS011;53339;51.378;0.094;2023-02-28T08:36:03;7.45;;;6.80;;
26253;SDS011;53339;51.378;0.094;2023-02-28T08:39:12;8.88;;;6.20;;
26253;SDS011;53339;51.378;0.094;2023-02-28T08:41:41;10.65;;;7.40;;
26253;SDS011;53339;51.378;0.094;2023-02-28T08:44:46;6.65;;;3.95;;
26253;SDS011;53339;51.378;0.094;2023-02-28T08:48:20;6.60;;;5.53;;
26253;SDS011;53339;51.378;0.094;2023-02-28T08:51:04;10.00;;;9.00;;
26253;SDS011;53339;51.378;0.094;2023-02-28T08:53:45;5.78;;;3.10;;
26253;SDS011;53339;51.378;0.094;2023-02-28T08:56:35;6.20;;;3.00;;
26253;SDS011;53339;51.378;0.094;2023-02-28T08:59:36;4.13;;;1.92;;
26253;SDS011;53339;51.378;0.094;2023-02-28T09:02:28;5.70;;;3.88;;
26253;SDS011;53339;51.378;0.094;2023-02-28T09:08:09;6.13;;;4.07;;
26253;SDS011;53339;51.378;0.094;2023-02-28T09:11:34;5.75;;;5.35;;
26253;SDS011;53339;51.378;0.094;2023-02-28T09:14:33;4.97;;;2.60;;
26253;SDS011;53339;51.378;0.094;2023-02-28T09:17:02;5.20;;;3.20;;
26253;SDS011;53339;51.378;0.094;2023-02-28T09:19:48;5.47;;;3.53;;
26253;SDS011;53339;51.378;0.094;2023-02-28T09:22:24;4.88;;;2.45;;
26253;SDS011;53339;51.378;0.094;2023-02-28T09:28:42;5.13;;;2.53;;
26253;SDS011;53339;51.378;0.094;2023-02-28T09:31:41;7.63;;;6.45;;
26253;SDS011;53339;51.378;0.094;2023-02-28T09:34:10;7.55;;;6.55;;
26253;SDS011;53339;51.378;0.094;2023-02-28T09:36:59;6.80;;;5.65;;
26253;SDS011;53339;51.378;0.094;2023-02-28T09:39:48;8.32;;;7.63;;
26253;SDS011;53339;51.378;0.094;2023-02-28T09:45:29;4.63;;;2.47;;
26253;SDS011;53339;51.378;0.094;2023-02-28T09:48:10;5.20;;;2.72;;
26253;SDS011;53339;51.378;0.094;2023-02-28T09:50:48;6.25;;;5.60;;
26253;SDS011;53339;51.378;0.094;2023-02-28T09:53:32;7.32;;;6.20;;
26253;SDS011;53339;51.378;0.094;2023-02-28T09:56:53;8.60;;;3.85;;
26253;SDS011;53339;51.378;0.094;2023-02-28T10:00:21;5.75;;;2.70;;
26253;SDS011;53339;51.378;0.094;2023-02-28T10:03:04;3.60;;;2.83;;
26253;SDS011;53339;51.378;0.094;2023-02-28T10:05:56;7.50;;;6.80;;
26253;SDS011;53339;51.378;0.094;2023-02-28T10:11:29;4.75;;;3.38;;
26253;SDS011;53339;51.378;0.094;2023-02-28T10:14:09;9.45;;;8.50;;
26253;SDS011;53339;51.378;0.094;2023-02-28T10:17:14;7.78;;;4.45;;
26253;SDS011;53339;51.378;0.094;2023-02-28T10:25:24;5.78;;;3.33;;
26253;SDS011;53339;51.378;0.094;2023-02-28T10:28:12;8.05;;;7.32;;
26253;SDS011;53339;51.378;0.094;2023-02-28T10:30:52;10.13;;;9.13;;
26253;SDS011;53339;51.378;0.094;2023-02-28T10:33:30;7.68;;;6.97;;
26253;SDS011;53339;51.378;0.094;2023-02-28T10:36:31;6.65;;;3.75;;
26253;SDS011;53339;51.378;0.094;2023-02-28T10:42:05;9.05;;;7.32;;
26253;SDS011;53339;51.378;0.094;2023-02-28T10:45:15;8.98;;;8.10;;
26253;SDS011;53339;51.378;0.094;2023-02-28T10:50:56;8.43;;;4.80;;
26253;SDS011;53339;51.378;0.094;2023-02-28T10:57:20;7.97;;;5.30;;
26253;SDS011;53339;51.378;0.094;2023-02-28T11:00:15;5.32;;;3.78;;
26253;SDS011;53339;51.378;0.094;2023-02-28T11:03:35;7.60;;;5.28;;
26253;SDS011;53339;51.378;0.094;2023-02-28T11:06:24;7.65;;;6.95;;
26253;SDS011;53339;51.378;0.094;2023-02-28T11:12:37;7.70;;;6.90;;
26253;SDS011;53339;51.378;0.094;2023-02-28T11:16:00;7.90;;;6.93;;
26253;SDS011;53339;51.378;0.094;2023-02-28T11:18:59;4.32;;;2.65;;
26253;SDS011;53339;51.378;0.094;2023-02-28T11:25:04;4.43;;;3.08;;
26253;SDS011;53339;51.378;0.094;2023-02-28T11:27:50;6.35;;;5.82;;
26253;SDS011;53339;51.378;0.094;2023-02-28T11:30:24;3.75;;;2.35;;
26253;SDS011;53339;51.378;0.094;2023-02-28T11:36:30;4.55;;;2.22;;
26253;SDS011;53339;51.378;0.094;2023-02-28T11:39:36;4.88;;;2.13;;
26253;SDS011;53339;51.378;0.094;2023-02-28T11:48:27;6.93;;;5.97;;
26253;SDS011;53339;51.378;0.094;2023-02-28T11:51:43;5.72;;;2.80;;
26253;SDS011;53339;51.378;0.094;2023-02-28T12:07:49;5.53;;;3.45;;
26253;SDS011;53339;51.378;0.094;2023-02-28T12:27:47;6.50;;;3.47;;
26253;SDS011;53339;51.378;0.094;2023-02-28T12:30:27;3.58;;;2.08;;
26253;SDS011;53339;51.378;0.094;2023-02-28T12:36:14;5.93;;;3.15;;
26253;SDS011;53339;51.378;0.094;2023-02-28T12:39:08;4.88;;;2.97;;
26253;SDS011;53339;51.378;0.094;2023-02-28T12:45:05;6.07;;;3.15;;
26253;SDS011;53339;51.378;0.094;2023-02-28T12:48:06;4.90;;;2.83;;
26253;SDS011;53339;51.378;0.094;2023-02-28T12:50:38;6.82;;;6.15;;
26253;SDS011;53339;51.378;0.094;2023-02-28T13:00:44;4.85;;;3.60;;
26253;SDS011;53339;51.378;0.094;2023-02-28T13:09:54;15.40;;;10.65;;
26253;SDS011;53339;51.378;0.094;2023-02-28T13:13:01;13.35;;;10.70;;
26253;SDS011;53339;51.378;0.094;2023-02-28T13:15:31;7.63;;;4.72;;
26253;SDS011;53339;51.378;0.094;2023-02-28T13:18:05;7.55;;;3.88;;
26253;SDS011;53339;51.378;0.094;2023-02-28T13:21:23;7.57;;;4.57;;
26253;SDS011;53339;51.378;0.094;2023-02-28T13:24:43;8.57;;;4.85;;
26253;SDS011;53339;51.378;0.094;2023-02-28T13:27:48;11.30;;;7.00;;
26253;SDS011;53339;51.378;0.094;2023-02-28T13:36:40;9.65;;;6.03;;
26253;SDS011;53339;51.378;0.094;2023-02-28T13:42:36;6.68;;;3.95;;
26253;SDS011;53339;51.378;0.094;2023-02-28T13:45:23;5.28;;;3.10;;
26253;SDS011;53339;51.378;0.094;2023-02-28T13:48:38;9.13;;;3.70;;
26253;SDS011;53339;51.378;0.094;2023-02-28T13:51:35;10.45;;;6.85;;
26253;SDS011;53339;51.378;0.094;2023-02-28T13:57:39;5.57;;;5.07;;
26253;SDS011;53339;51.378;0.094;2023-02-28T14:00:44;5.13;;;2.67;;
26253;SDS011;53339;51.378;0.094;2023-02-28T14:04:07;5.57;;;5.05;;
26253;SDS011;53339;51.378;0.094;2023-02-28T14:10:25;6.43;;;5.82;;
26253;SDS011;53339;51.378;0.094;2023-02-28T14:18:41;2.90;;;2.15;;
26253;SDS011;53339;51.378;0.094;2023-02-28T14:21:20;4.85;;;4.45;;
26253;SDS011;53339;51.378;0.094;2023-02-28T14:27:17;4.93;;;4.53;;
26253;SDS011;53339;51.378;0.094;2023-02-28T14:39:13;4.38;;;2.67;;
26253;SDS011;53339;51.378;0.094;2023-02-28T14:41:54;7.78;;;5.32;;
26253;SDS011;53339;51.378;0.094;2023-02-28T14:44:55;7.68;;;2.35;;
26253;SDS011;53339;51.378;0.094;2023-02-28T14:47:37;3.92;;;2.45;;
26253;SDS011;53339;51.378;0.094;2023-02-28T14:50:30;6.85;;;6.15;;
26253;SDS011;53339;51.378;0.094;2023-02-28T14:53:01;5.50;;;5.10;;
26253;SDS011;53339;51.378;0.094;2023-02-28T14:55:56;6.70;;;5.82;;
26253;SDS011;53339;51.378;0.094;2023-02-28T14:58:52;5.45;;;5.03;;
26253;SDS011;53339;51.378;0.094;2023-02-28T15:01:24;6.55;;;6.05;;
26253;SDS011;53339;51.378;0.094;2023-02-28T15:04:05;7.10;;;6.60;;
26253;SDS011;53339;51.378;0.094;2023-02-28T15:07:06;5.05;;;4.70;;
26253;SDS011;53339;51.378;0.094;2023-02-28T15:10:25;5.63;;;2.45;;
26253;SDS011;53339;51.378;0.094;2023-02-28T15:13:00;2.55;;;2.05;;
26253;SDS011;53339;51.378;0.094;2023-02-28T15:16:00;7.20;;;3.20;;
26253;SDS011;53339;51.378;0.094;2023-02-28T15:24:19;6.00;;;5.30;;
26253;SDS011;53339;51.378;0.094;2023-02-28T15:27:11;3.13;;;2.28;;
26253;SDS011;53339;51.378;0.094;2023-02-28T15:33:35;3.00;;;1.85;;
26253;SDS011;53339;51.378;0.094;2023-02-28T15:40:17;3.05;;;2.72;;
26253;SDS011;53339;51.378;0.094;2023-02-28T15:43:37;2.60;;;1.48;;
26253;SDS011;53339;51.378;0.094;2023-02-28T15:46:11;2.78;;;2.28;;
26253;SDS011;53339;51.378;0.094;2023-02-28T15:49:01;2.38;;;1.92;;
26253;SDS011;53339;51.378;0.094;2023-02-28T15:55:44;4.90;;;4.55;;
26253;SDS011;53339;51.378;0.094;2023-02-28T15:59:07;2.88;;;2.00;;
26253;SDS011;53339;51.378;0.094;2023-02-28T16:07:40;6.93;;;6.32;;
26253;SDS011;53339;51.378;0.094;2023-02-28T16:10:41;4.32;;;2.47;;
26253;SDS011;53339;51.378;0.094;2023-02-28T16:13:24;3.47;;;1.67;;
26253;SDS011;53339;51.378;0.094;2023-02-28T16:16:31;4.28;;;3.13;;
26253;SDS011;53339;51.378;0.094;2023-02-28T16:19:22;4.32;;;3.13;;
26253;SDS011;53339;51.378;0.094;2023-02-28T16:22:03;6.07;;;5.57;;
26253;SDS011;53339;51.378;0.094;2023-02-28T16:24:34;4.35;;;3.15;;
26253;SDS011;53339;51.378;0.094;2023-02-28T16:27:02;6.38;;;5.88;;
26253;SDS011;53339;51.378;0.094;2023-02-28T16:30:07;5.82;;;4.95;;
26253;SDS011;53339;51.378;0.094;2023-02-28T16:32:52;4.90;;;2.85;;
26253;SDS011;53339;51.378;0.094;2023-02-28T16:35:36;6.90;;;6.40;;
26253;SDS011;53339;51.378;0.094;2023-02-28T16:38:19;3.53;;;1.80;;
26253;SDS011;53339;51.378;0.094;2023-02-28T16:41:54;6.25;;;5.60;;
26253;SDS011;53339;51.378;0.094;2023-02-28T16:44:03;3.53;;;1.95;;
26253;SDS011;53339;51.378;0.094;2023-02-28T16:46:58;6.55;;;5.90;;
26253;SDS011;53339;51.378;0.094;2023-02-28T17:03:59;7.13;;;5.10;;
26253;SDS011;53339;51.378;0.094;2023-02-28T17:07:02;6.82;;;6.22;;
26253;SDS011;53339;51.378;0.094;2023-02-28T17:09:41;2.58;;;1.77;;
26253;SDS011;53339;51.378;0.094;2023-02-28T17:12:25;4.65;;;4.25;;
26253;SDS011;53339;51.378;0.094;2023-02-28T17:15:18;3.67;;;2.20;;
26253;SDS011;53339;51.378;0.094;2023-02-28T17:18:01;4.15;;;3.28;;
26253;SDS011;53339;51.378;0.094;2023-02-28T17:24:14;4.38;;;3.95;;
26253;SDS011;53339;51.378;0.094;2023-02-28T17:27:27;3.15;;;1.70;;
26253;SDS011;53339;51.378;0.094;2023-02-28T17:29:56;5.50;;;4.80;;
26253;SDS011;53339;51.378;0.094;2023-02-28T17:32:51;5.25;;;4.82;;
26253;SDS011;53339;51.378;0.094;2023-02-28T17:35:28;3.72;;;2.10;;
26253;SDS011;53339;51.378;0.094;2023-02-28T17:37:58;4.68;;;2.92;;
26253;SDS011;53339;51.378;0.094;2023-02-28T17:40:49;3.78;;;1.95;;
26253;SDS011;53339;51.378;0.094;2023-02-28T17:43:38;4.97;;;4.57;;
26253;SDS011;53339;51.378;0.094;2023-02-28T17:47:11;5.10;;;4.70;;
26253;SDS011;53339;51.378;0.094;2023-02-28T17:50:03;3.08;;;1.63;;
26253;SDS011;53339;51.378;0.094;2023-02-28T17:52:52;2.67;;;2.30;;
26253;SDS011;53339;51.378;0.094;2023-02-28T17:58:28;3.90;;;2.45;;
26253;SDS011;53339;51.378;0.094;2023-02-28T18:01:04;3.65;;;2.10;;
26253;SDS011;53339;51.378;0.094;2023-02-28T18:03:44;4.20;;;3.38;;
26253;SDS011;53339;51.378;0.094;2023-02-28T18:06:16;5.20;;;4.75;;
26253;SDS011;53339;51.378;0.094;2023-02-28T18:09:12;6.32;;;5.68;;
26253;SDS011;53339;51.378;0.094;2023-02-28T18:12:09;5.28;;;4.88;;
26253;SDS011;53339;51.378;0.094;2023-02-28T18:14:48;4.20;;;2.47;;
26253;SDS011;53339;51.378;0.094;2023-02-28T18:17:49;2.30;;;1.60;;
26253;SDS011;53339;51.378;0.094;2023-02-28T18:20:41;5.55;;;5.05;;
26253;SDS011;53339;51.378;0.094;2023-02-28T18:23:09;3.40;;;1.92;;
26253;SDS011;53339;51.378;0.094;2023-02-28T18:26:27;2.65;;;2.10;;
26253;SDS011;53339;51.378;0.094;2023-02-28T18:29:36;6.63;;;6.13;;
26253;SDS011;53339;51.378;0.094;2023-02-28T18:32:26;5.75;;;2.75;;
26253;SDS011;53339;51.378;0.094;2023-02-28T18:35:17;3.22;;;2.03;;
26253;SDS011;53339;51.378;0.094;2023-02-28T18:38:28;6.28;;;5.68;;
26253;SDS011;53339;51.378;0.094;2023-02-28T18:41:25;5.32;;;4.80;;
26253;SDS011;53339;51.378;0.094;2023-02-28T18:44:16;5.90;;;4.57;;
26253;SDS011;53339;51.378;0.094;2023-02-28T18:46:48;5.07;;;3.42;;
26253;SDS011;53339;51.378;0.094;2023-02-28T18:50:13;9.15;;;6.47;;
26253;SDS011;53339;51.378;0.094;2023-02-28T18:55:58;3.03;;;2.17;;
26253;SDS011;53339;51.378;0.094;2023-02-28T18:58:32;6.75;;;6.18;;
26253;SDS011;53339;51.378;0.094;2023-02-28T19:01:57;4.15;;;2.53;;
26253;SDS011;53339;51.378;0.094;2023-02-28T19:05:45;3.35;;;2.78;;
26253;SDS011;53339;51.378;0.094;2023-02-28T19:12:41;5.88;;;5.38;;
26253;SDS011;53339;51.378;0.094;2023-02-28T19:15:29;3.80;;;2.35;;
26253;SDS011;53339;51.378;0.094;2023-02-28T19:18:36;4.65;;;2.83;;
26253;SDS011;53339;51.378;0.094;2023-02-28T19:21:10;4.63;;;2.28;;
26253;SDS011;53339;51.378;0.094;2023-02-28T19:24:08;5.43;;;4.93;;
26253;SDS011;53339;51.378;0.094;2023-02-28T19:26:40;3.60;;;1.98;;
26253;SDS011;53339;51.378;0.094;2023-02-28T19:32:22;6.03;;;2.80;;
26253;SDS011;53339;51.378;0.094;2023-02-28T19:35:31;3.67;;;3.13;;
26253;SDS011;53339;51.378;0.094;2023-02-28T19:38:46;7.30;;;2.58;;
26253;SDS011;53339;51.378;0.094;2023-02-28T19:41:49;3.15;;;2.30;;
26253;SDS011;53339;51.378;0.094;2023-02-28T19:44:56;7.35;;;6.65;;
26253;SDS011;53339;51.378;0.094;2023-02-28T19:48:23;5.20;;;3.88;;
26253;SDS011;53339;51.378;0.094;2023-02-28T19:51:40;5.20;;;3.22;;
26253;SDS011;53339;51.378;0.094;2023-02-28T19:54:11;6.70;;;5.00;;
26253;SDS011;53339;51.378;0.094;2023-02-28T19:57:16;6.43;;;5.80;;
26253;SDS011;53339;51.378;0.094;2023-02-28T20:00:09;7.43;;;6.82;;
26253;SDS011;53339;51.378;0.094;2023-02-28T20:02:48;7.40;;;5.10;;
26253;SDS011;53339;51.378;0.094;2023-02-28T20:05:17;6.40;;;3.75;;
26253;SDS011;53339;51.378;0.094;2023-02-28T20:14:33;10.65;;;5.90;;
26253;SDS011;53339;51.378;0.094;2023-02-28T20:17:38;9.57;;;5.03;;
26253;SDS011;53339;51.378;0.094;2023-02-28T20:20:11;13.85;;;7.80;;
26253;SDS011;53339;51.378;0.094;2023-02-28T20:23:24;12.02;;;6.78;;
26253;SDS011;53339;51.378;0.094;2023-02-28T20:26:01;12.55;;;7.72;;
26253;SDS011;53339;51.378;0.094;2023-02-28T20:28:30;14.73;;;11.35;;
26253;SDS011;53339;51.378;0.094;2023-02-28T20:31:33;14.15;;;8.30;;
26253;SDS011;53339;51.378;0.094;2023-02-28T20:34:07;16.48;;;7.88;;
26253;SDS011;53339;51.378;0.094;2023-02-28T20:37:01;15.68;;;10.45;;
26253;SDS011;53339;51.378;0.094;2023-02-28T20:39:42;14.00;;;10.10;;
26253;SDS011;53339;51.378;0.094;2023-02-28T20:42:19;13.65;;;6.63;;
26253;SDS011;53339;51.378;0.094;2023-02-28T20:45:04;11.13;;;6.32;;
26253;SDS011;53339;51.378;0.094;2023-02-28T20:47:33;12.95;;;9.55;;
26253;SDS011;53339;51.378;0.094;2023-02-28T20:50:04;18.90;;;11.05;;
26253;SDS011;53339;51.378;0.094;2023-02-28T20:52:55;17.33;;;10.60;;
26253;SDS011;53339;51.378;0.094;2023-02-28T20:55:41;14.75;;;10.90;;
26253;SDS011;53339;51.378;0.094;2023-02-28T20:59:26;12.32;;;5.88;;
26253;SDS011;53339;51.378;0.094;2023-02-28T21:02:34;13.82;;;9.43;;
26253;SDS011;53339;51.378;0.094;2023-02-28T21:05:43;12.80;;;7.45;;
26253;SDS011;53339;51.378;0.094;2023-02-28T21:08:11;17.80;;;11.35;;
26253;SDS011;53339;51.378;0.094;2023-02-28T21:11:13;15.13;;;7.55;;
26253;SDS011;53339;51.378;0.094;2023-02-28T21:14:26;14.73;;;11.27;;
26253;SDS011;53339;51.378;0.094;2023-02-28T21:17:44;14.38;;;8.00;;
26253;SDS011;53339;51.378;0.094;2023-02-28T21:20:17;17.85;;;7.00;;